^^
Grace C. Lehan Memorial Weather Station Historical Data
Daily Summary for April 16, 2021 Units:  English    Metric   Both
Daily Weekly Monthly Yearly
  High: Low: Average:
Temperature: 75.4 °F 58.2 °F 67.8 °F
Dew Point: 67.5 °F 56.2 °F 63.1 °F
Humidity: 96% 69.5% 86%
Wind Speed: 4.6mph 0mph 0.7mph
Wind Gust: 15mph - -
Wind- - SSW
Pressure: 29.83 in 29.57 in -
Precipitation: 0.29 in    
 
 
Tabular Data for April 16, 2021
Time Temperature Dew Point Pressure Wind Wind Speed Wind Gust Humidity Rainfall Rate (Hourly) solar
00:09 65.4 °F 63.3 °F 29.83 in Calm     93% 0.00 in 0 W/m2
00:14 65.3 °F 63.2 °F 29.83 in Calm     93% 0.00 in 0 W/m2
00:19 65.2 °F 63.3 °F 29.83 in Calm     93.3% 0.00 in 0 W/m2
00:24 65.2 °F 63.1 °F 29.83 in Calm     93% 0.00 in 0 W/m2
00:29 65.1 °F 63 °F 29.83 in Calm     93% 0.00 in 0 W/m2
00:34 64.9 °F 62.9 °F 29.83 in Calm     93% 0.00 in 0 W/m2
00:39 64.8 °F 62.7 °F 29.83 in Calm     93% 0.00 in 0 W/m2
00:44 64.7 °F 62.8 °F 29.83 in Calm     93.6% 0.00 in 0 W/m2
00:49 64.6 °F 62.9 °F 29.83 in Calm     94% 0.00 in 0 W/m2
00:54 64.7 °F 62.9 °F 29.83 in Calm     94% 0.00 in 0 W/m2
00:59 64.7 °F 62.9 °F 29.83 in Calm     94% 0.00 in 0 W/m2
01:04 64.6 °F 62.9 °F 29.82 in Calm     94% 0.00 in 0 W/m2
01:09 64.6 °F 62.8 °F 29.82 in Calm     94% 0.00 in 0 W/m2
01:14 64.6 °F 62.8 °F 29.82 in Calm     94% 0.00 in 0 W/m2
01:19 64.5 °F 62.7 °F 29.82 in Calm     94% 0.00 in 0 W/m2
01:24 64.4 °F 62.6 °F 29.82 in Calm     94% 0.00 in 0 W/m2
01:29 64.4 °F 62.6 °F 29.82 in Calm     94% 0.00 in 0 W/m2
01:34 64.3 °F 62.6 °F 29.82 in Calm     94% 0.00 in 0 W/m2
01:39 64.3 °F 62.5 °F 29.82 in Calm     94% 0.00 in 0 W/m2
01:44 64.2 °F 62.4 °F 29.82 in Calm     94% 0.00 in 0 W/m2
01:49 64.1 °F 62.3 °F 29.82 in Calm     94% 0.00 in 0 W/m2
01:54 64 °F 62.2 °F 29.82 in Calm     94% 0.00 in 0 W/m2
01:59 63.9 °F 62.1 °F 29.82 in Calm     94% 0.00 in 0 W/m2
02:04 63.8 °F 62 °F 29.82 in Calm     94% 0.00 in 0 W/m2
02:09 63.7 °F 62 °F 29.82 in Calm     94% 0.00 in 0 W/m2
02:14 63.7 °F 62 °F 29.82 in Calm     94% 0.00 in 0 W/m2
02:19 63.7 °F 62 °F 29.82 in Calm     94% 0.00 in 0 W/m2
02:24 63.7 °F 61.9 °F 29.82 in Calm     94% 0.00 in 0 W/m2
02:29 63.6 °F 61.9 °F 29.81 in Calm     94% 0.00 in 0 W/m2
02:34 63.6 °F 61.8 °F 29.81 in Calm     94% 0.00 in 0 W/m2
02:39 63.5 °F 61.8 °F 29.81 in Calm     94% 0.00 in 0 W/m2
02:44 63.4 °F 61.7 °F 29.81 in Calm     94.1% 0.00 in 0 W/m2
02:49 63.4 °F 62 °F 29.80 in Calm     95% 0.00 in 0 W/m2
02:54 63.4 °F 61.7 °F 29.80 in Calm     94% 0.00 in 0 W/m2
02:59 63.3 °F 61.6 °F 29.80 in Calm     94% 0.00 in 0 W/m2
03:04 63.3 °F 61.5 °F 29.80 in Calm     94% 0.00 in 0 W/m2
03:09 63.2 °F 61.5 °F 29.80 in Calm     94% 0.00 in 0 W/m2
03:14 63.1 °F 61.4 °F 29.80 in Calm     94% 0.00 in 0 W/m2
03:19 63.1 °F 61.5 °F 29.79 in Calm     94.7% 0.00 in 0 W/m2
03:24 63 °F 61.5 °F 29.79 in Calm     95% 0.00 in 0 W/m2
03:29 62.9 °F 61.5 °F 29.79 in Calm     95% 0.00 in 0 W/m2
03:34 62.9 °F 61.5 °F 29.79 in Calm     95% 0.00 in 0 W/m2
03:39 62.9 °F 61.5 °F 29.79 in Calm     95% 0.00 in 0 W/m2
03:44 62.9 °F 61.5 °F 29.79 in Calm     95% 0.00 in 0 W/m2
03:49 63 °F 61.5 °F 29.79 in Calm     95% 0.00 in 0 W/m2
03:54 63 °F 61.6 °F 29.79 in Calm     95% 0.00 in 0 W/m2
03:59 63 °F 61.6 °F 29.78 in Calm     95% 0.00 in 0 W/m2
04:04 63.2 °F 61.8 °F 29.78 in Calm     95% 0.00 in 0 W/m2
04:09 63.3 °F 61.9 °F 29.78 in Calm     95% 0.00 in 0 W/m2
04:14 63.3 °F 61.9 °F 29.78 in Calm     95% 0.00 in 0 W/m2
04:19 63.2 °F 61.8 °F 29.78 in Calm     95% 0.00 in 0 W/m2
04:24 63.1 °F 61.6 °F 29.78 in Calm     95% 0.00 in 0 W/m2
04:29 63 °F 61.5 °F 29.78 in Calm     95% 0.00 in 0 W/m2
04:34 62.8 °F 61.4 °F 29.77 in Calm     95% 0.00 in 0 W/m2
04:39 62.9 °F 61.4 °F 29.77 in Calm     95% 0.00 in 0 W/m2
04:44 63 °F 61.5 °F 29.77 in Calm     95% 0.00 in 0 W/m2
04:49 63.1 °F 61.7 °F 29.77 in Calm     95.2% 0.00 in 0 W/m2
04:54 63.3 °F 61.9 °F 29.77 in Calm     95.3% 0.00 in 0 W/m2
04:59 63.3 °F 61.9 °F 29.78 in Calm     95% 0.00 in 0 W/m2
05:04 63.1 °F 61.7 °F 29.78 in Calm     95% 0.00 in 0 W/m2
05:09 62.8 °F 61.4 °F 29.77 in Calm     95% 0.00 in 0 W/m2
05:14 62.7 °F 61.2 °F 29.77 in Calm     95% 0.00 in 0 W/m2
05:19 62.6 °F 61.2 °F 29.78 in Calm     95% 0.00 in 0 W/m2
05:24 62.7 °F 61.2 °F 29.78 in Calm     95% 0.00 in 0 W/m2
05:29 62.7 °F 61.3 °F 29.78 in Calm     95% 0.00 in 0 W/m2
05:34 62.8 °F 61.4 °F 29.78 in Calm     95% 0.00 in 0 W/m2
05:39 62.9 °F 61.4 °F 29.77 in Calm     95% 0.00 in 0 W/m2
05:44 62.9 °F 61.5 °F 29.77 in Calm     95.1% 0.00 in 0 W/m2
05:49 63 °F 61.9 °F 29.78 in Calm     96% 0.00 in 0 W/m2
05:54 63.2 °F 62 °F 29.78 in Calm     96% 0.00 in 0 W/m2
05:59 63.2 °F 62 °F 29.77 in Calm     96% 0.00 in 0 W/m2
06:04 63.2 °F 62 °F 29.77 in Calm     96% 0.00 in 0 W/m2
06:09 63.2 °F 62 °F 29.77 in Calm     96% 0.00 in 0 W/m2
06:14 63.1 °F 62 °F 29.77 in Calm     96% 0.00 in 0 W/m2
06:19 63.1 °F 61.9 °F 29.77 in Calm     96% 0.00 in 0 W/m2
06:24 63.1 °F 61.9 °F 29.78 in Calm     96% 0.00 in 0 W/m2
06:29 63.1 °F 61.9 °F 29.78 in Calm     96% 0.00 in 0 W/m2
06:34 63.1 °F 61.9 °F 29.78 in Calm     96% 0.00 in 0 W/m2
06:39 63 °F 61.9 °F 29.77 in Calm     96% 0.00 in 0 W/m2
06:44 63.1 °F 62 °F 29.77 in Calm     96% 0.00 in 0 W/m2
06:49 63.3 °F 62.1 °F 29.77 in Calm     96% 0.00 in 0 W/m2
06:54 63.4 °F 62.2 °F 29.77 in Calm     96% 0.00 in 0 W/m2
06:59 63.5 °F 62.3 °F 29.77 in Calm     96% 0.00 in 0 W/m2
07:04 63.5 °F 62.3 °F 29.77 in Calm     96% 0.00 in 0 W/m2
07:09 63.5 °F 62.4 °F 29.77 in Calm     96% 0.00 in 5 W/m2
07:14 63.6 °F 62.4 °F 29.77 in Calm     96% 0.00 in 5 W/m2
07:19 63.7 °F 62.5 °F 29.77 in Calm     96% 0.00 in 5 W/m2
07:24 63.8 °F 62.6 °F 29.77 in Calm     96% 0.00 in 9 W/m2
07:29 63.8 °F 62.7 °F 29.77 in Calm     96% 0.00 in 9 W/m2
07:34 63.9 °F 62.8 °F 29.77 in Calm     96% 0.00 in 9 W/m2
07:39 64 °F 62.9 °F 29.77 in Calm   1 mph 96% 0.00 in 7 W/m2
07:44 64.1 °F 63 °F 29.77 in Calm   1 mph 96% 0.00 in 9 W/m2
07:49 64.3 °F 63.1 °F 29.77 in Calm   1 mph 96% 0.00 in 14 W/m2
07:54 64.4 °F 63.2 °F 29.77 in Calm   1 mph 96% 0.00 in 37 W/m2
07:59 64.5 °F 63.3 °F 29.77 in Calm   1 mph 96% 0.00 in 49 W/m2
08:00 64.6 °F 63.4 °F 29.77 in Calm   1 mph 96% 0.00 in 49 W/m2
08:09 64.9 °F 63.7 °F 29.77 in Calm     96% 0.00 in 60 W/m2
08:14 65 °F 63.9 °F 29.77 in Calm     96% 0.00 in 46 W/m2
08:19 65.2 °F 64 °F 29.77 in Calm     96% 0.00 in 44 W/m2
08:24 65.4 °F 64.2 °F 29.77 in Calm     96% 0.00 in 62 W/m2
08:29 65.6 °F 64.4 °F 29.77 in Calm     96% 0.00 in 70 W/m2
08:34 65.8 °F 64.6 °F 29.77 in Calm     96% 0.00 in 54 W/m2
08:39 65.9 °F 64.8 °F 29.76 in Calm     96% 0.00 in 91 W/m2
08:44 66.2 °F 65 °F 29.76 in Calm     96% 0.00 in 118 W/m2
08:49 66.4 °F 65.3 °F 29.76 in Calm     96% 0.00 in 151 W/m2
08:54 66.8 °F 65.6 °F 29.75 in Calm   1 mph 96% 0.00 in 287 W/m2
08:59 67.3 °F 66.1 °F 29.75 in Calm   1 mph 96% 0.00 in 264 W/m2
09:04 67.5 °F 66.3 °F 29.75 in Calm   1 mph 96% 0.00 in 221 W/m2
09:09 67.8 °F 66.4 °F 29.75 in SSW 0.3 mph 4 mph 95.4% 0.00 in 267 W/m2
09:14 68.1 °F 66.3 °F 29.75 in Calm   4 mph 94% 0.00 in 320 W/m2
09:19 68.9 °F 67 °F 29.75 in Calm   4 mph 93.5% 0.00 in 371 W/m2
09:24 69.8 °F 67.5 °F 29.75 in SSW 0.2 mph 4 mph 92.3% 0.00 in 396 W/m2
09:29 70.8 °F 67.4 °F 29.75 in South 0.2 mph 5 mph 89.1% 0.00 in 388 W/m2
09:34 71.7 °F 67.1 °F 29.75 in SSW 0.3 mph 5 mph 85.6% 0.00 in 411 W/m2
09:39 72.4 °F 67.2 °F 29.75 in SW 1.3 mph 11 mph 83.5% 0.00 in 446 W/m2
09:44 73.1 °F 66.9 °F 29.75 in SSW 0.4 mph 11 mph 81.1% 0.00 in 381 W/m2
09:49 73.3 °F 66.2 °F 29.74 in South 1.3 mph 11 mph 78.6% 0.00 in 339 W/m2
09:54 73.2 °F 65.8 °F 29.74 in SSW 1.3 mph 11 mph 77.4% 0.00 in 366 W/m2
09:59 73.2 °F 65.9 °F 29.75 in SSW 1.6 mph 11 mph 77.8% 0.00 in 366 W/m2
10:04 73.3 °F 65.7 °F 29.74 in SW 1.7 mph 11 mph 77% 0.00 in 285 W/m2
10:09 73.3 °F 65.7 °F 29.74 in South 0.5 mph 6 mph 77% 0.00 in 385 W/m2
10:14 73.3 °F 65.3 °F 29.74 in South 1.1 mph 6 mph 76% 0.00 in 241 W/m2
10:19 73.1 °F 65.4 °F 29.74 in South 0.9 mph 6 mph 77% 0.00 in 237 W/m2
10:24 72.9 °F 65.3 °F 29.74 in South 1.4 mph 7 mph 77% 0.00 in 234 W/m2
10:29 72.7 °F 64.9 °F 29.74 in South 1.6 mph 9 mph 76.5% 0.00 in 172 W/m2
10:34 72.5 °F 64.6 °F 29.74 in SSW 0.6 mph 9 mph 76.4% 0.00 in 141 W/m2
10:39 72.2 °F 64.6 °F 29.74 in South 0.2 mph 7 mph 77% 0.00 in 142 W/m2
10:44 72.1 °F 64.9 °F 29.74 in SSW 0.1 mph 7 mph 78% 0.00 in 160 W/m2
10:49 72.1 °F 65 °F 29.74 in South 0.3 mph 7 mph 78.4% 0.00 in 179 W/m2
10:54 72.1 °F 64.8 °F 29.74 in South 0.5 mph 7 mph 78% 0.00 in 216 W/m2
10:59 72.1 °F 65.1 °F 29.73 in South 0.4 mph 7 mph 78.7% 0.00 in 244 W/m2
11:04 72.2 °F 65 °F 29.73 in South 0.4 mph 7 mph 78% 0.00 in 239 W/m2
11:09 72.4 °F 65.2 °F 29.73 in SSW 0.2 mph 4 mph 78% 0.00 in 221 W/m2
11:14 72.7 °F 65.2 °F 29.73 in SSE 0.3 mph 4 mph 77.3% 0.00 in 243 W/m2
11:19 73 °F 65.7 °F 29.73 in SSW 0.3 mph 4 mph 78% 0.00 in 243 W/m2
11:24 73.3 °F 65.5 °F 29.73 in South 1.2 mph 5 mph 76.5% 0.00 in 202 W/m2
11:29 73.4 °F 65.2 °F 29.73 in South 1 mph 5 mph 75.6% 0.00 in 190 W/m2
11:34 73.3 °F 65.1 °F 29.73 in SW 0.7 mph 6 mph 75.5% 0.00 in 190 W/m2
11:39 73.3 °F 65.3 °F 29.73 in SSW 0.4 mph 6 mph 76% 0.00 in 190 W/m2
11:44 73.4 °F 65.4 °F 29.74 in SW 0.3 mph 6 mph 76% 0.00 in 176 W/m2
11:49 73.3 °F 65.4 °F 29.74 in SSW 1.6 mph 7 mph 76.2% 0.00 in 176 W/m2
11:53 73.3 °F 65.5 °F 29.73 in WSW 0.4 mph 7 mph 76.5% 0.00 in 181 W/m2
12:09 73.5 °F 65.5 °F 29.70 in South 0.5 mph 4 mph 76% 0.00 in 250 W/m2
12:14 73.6 °F 65.5 °F 29.70 in South 0.8 mph 6 mph 76% 0.00 in 297 W/m2
12:19 73.7 °F 65.7 °F 29.71 in South 1.1 mph 6 mph 76% 0.00 in 316 W/m2
12:24 73.9 °F 65.5 °F 29.70 in South 1.5 mph 7 mph 75% 0.00 in 301 W/m2
12:29 74.2 °F 65 °F 29.70 in South 3.4 mph 15 mph 73.1% 0.00 in 253 W/m2
12:34 74.2 °F 64.9 °F 29.70 in SSW 2.1 mph 15 mph 72.7% 0.00 in 274 W/m2
12:39 74.2 °F 64.6 °F 29.70 in South 3 mph 11 mph 72% 0.00 in 274 W/m2
12:44 74.2 °F 64.7 °F 29.69 in SSW 2.5 mph 15 mph 72.2% 0.00 in 227 W/m2
12:49 74.2 °F 64.6 °F 29.69 in South 0.9 mph 15 mph 72% 0.00 in 229 W/m2
12:54 74.2 °F 64.2 °F 29.68 in South 2.5 mph 15 mph 71.1% 0.00 in 223 W/m2
12:59 74.1 °F 64.4 °F 29.68 in South 1.1 mph 15 mph 71.7% 0.00 in 207 W/m2
13:04 74 °F 64.5 °F 29.68 in South 1.4 mph 15 mph 72.1% 0.00 in 207 W/m2
13:09 73.9 °F 64.5 °F 29.68 in SSW 1.4 mph 7 mph 72.3% 0.00 in 197 W/m2
13:14 73.8 °F 64.7 °F 29.67 in SSW 1.5 mph 7 mph 73% 0.00 in 200 W/m2
13:19 73.9 °F 65 °F 29.67 in South 1.6 mph 10 mph 73.9% 0.00 in 199 W/m2
13:24 73.8 °F 64.9 °F 29.67 in South 2.3 mph 11 mph 73.8% 0.00 in 190 W/m2
13:29 73.7 °F 65 °F 29.67 in South 1.7 mph 11 mph 74.1% 0.00 in 207 W/m2
13:34 73.7 °F 65 °F 29.67 in South 0.8 mph 11 mph 74.3% 0.00 in 239 W/m2
13:39 73.9 °F 65.4 °F 29.66 in South 0.7 mph 6 mph 74.7% 0.00 in 236 W/m2
13:44 74.3 °F 65.8 °F 29.66 in SSE 1 mph 6 mph 74.8% 0.00 in 216 W/m2
13:49 74.4 °F 65.7 °F 29.66 in SSE 1.1 mph 6 mph 74.1% 0.00 in 162 W/m2
13:54 74.4 °F 65.5 °F 29.66 in South 2.3 mph 9 mph 74% 0.00 in 171 W/m2
13:59 74.3 °F 65.5 °F 29.66 in South 2.8 mph 14 mph 74% 0.00 in 253 W/m2
14:04 74.5 °F 66 °F 29.65 in South 1.7 mph 14 mph 74.8% 0.00 in 253 W/m2
14:09 74.8 °F 65.8 °F 29.65 in SSW 2.2 mph 7 mph 73.5% 0.00 in 308 W/m2
14:14 75 °F 65.9 °F 29.65 in South 1.1 mph 7 mph 73.3% 0.00 in 285 W/m2
14:19 75 °F 66 °F 29.64 in South 1.5 mph 7 mph 73.4% 0.00 in 225 W/m2
14:24 75 °F 65.8 °F 29.64 in South 2.1 mph 7 mph 73% 0.00 in 334 W/m2
14:29 75.1 °F 65.9 °F 29.64 in SSE 2 mph 7 mph 72.9% 0.00 in 343 W/m2
14:34 75.3 °F 65.7 °F 29.64 in SSE 2 mph 7 mph 72.3% 0.00 in 251 W/m2
14:39 75.4 °F 65.5 °F 29.63 in South 2.8 mph 9 mph 71.3% 0.00 in 160 W/m2
14:44 75.4 °F 65.3 °F 29.63 in South 2.7 mph 9 mph 71% 0.00 in 213 W/m2
14:49 75.3 °F 65.3 °F 29.63 in SSE 1.6 mph 9 mph 71% 0.00 in 123 W/m2
14:54 75.3 °F 65 °F 29.63 in South 1.3 mph 9 mph 70.5% 0.00 in 102 W/m2
14:59 75.2 °F 64.6 °F 29.63 in South 2.6 mph 10 mph 69.5% 0.00 in 118 W/m2
15:04 75.2 °F 64.6 °F 29.63 in South 0.9 mph 10 mph 69.6% 0.00 in 188 W/m2
15:09 75.2 °F 64.8 °F 29.62 in South 2.8 mph 9 mph 70% 0.00 in 188 W/m2
15:14 75.2 °F 65 °F 29.62 in South 1.9 mph 14 mph 70.7% 0.00 in 206 W/m2
15:19 75.3 °F 64.9 °F 29.62 in SSE 2.1 mph 14 mph 70.1% 0.00 in 272 W/m2
15:24 75.3 °F 65 °F 29.62 in South 1.6 mph 14 mph 70.4% 0.00 in 410 W/m2
15:29 75.4 °F 65 °F 29.62 in SSE 2 mph 14 mph 70% 0.00 in 258 W/m2
15:34 75.3 °F 65 °F 29.62 in South 1.6 mph 14 mph 70.4% 0.00 in 111 W/m2
15:39 75 °F 65.1 °F 29.62 in SSW 1.4 mph 12 mph 71.3% 0.00 in 97 W/m2
15:44 74.7 °F 65 °F 29.62 in South 1.4 mph 12 mph 71.9% 0.00 in 95 W/m2
15:49 74.5 °F 65.1 °F 29.62 in South 2.1 mph 12 mph 72.5% 0.00 in 120 W/m2
15:54 74.4 °F 64.8 °F 29.62 in South 2.7 mph 12 mph 72.1% 0.00 in 120 W/m2
15:59 74.4 °F 64.9 °F 29.61 in South 2.7 mph 12 mph 72.2% 0.00 in 95 W/m2
16:00 74.4 °F 65.2 °F 29.61 in Calm   12 mph 73% 0.00 in 91 W/m2
16:09 74.2 °F 65.4 °F 29.61 in SSW 1.2 mph 7 mph 74% 0.00 in 98 W/m2
16:14 74 °F 65.2 °F 29.61 in SSW 0.4 mph 7 mph 74% 0.00 in 98 W/m2
16:19 73.9 °F 65.1 °F 29.61 in SSE 1.7 mph 10 mph 74% 0.00 in 102 W/m2
16:24 73.9 °F 65.1 °F 29.60 in South 3.3 mph 10 mph 74.1% 0.00 in 77 W/m2
16:29 73.8 °F 65.3 °F 29.60 in South 1.3 mph 10 mph 74.8% 0.00 in 90 W/m2
16:34 73.7 °F 65.3 °F 29.60 in SSE 1.5 mph 10 mph 75% 0.00 in 49 W/m2
16:39 73.7 °F 65.3 °F 29.60 in South 2.5 mph 7 mph 75% 0.00 in 40 W/m2
16:44 73.6 °F 65.2 °F 29.60 in South 2.2 mph 8 mph 75% 0.00 in 51 W/m2
16:49 73.5 °F 65.3 °F 29.60 in South 1.9 mph 8 mph 75.6% 0.00 in 37 W/m2
16:54 73.3 °F 65.1 °F 29.60 in South 1.2 mph 8 mph 75.5% 0.00 in 32 W/m2
16:59 73.3 °F 65.1 °F 29.60 in South 0.8 mph 8 mph 75.7% 0.00 in 47 W/m2
17:04 73.1 °F 64.7 °F 29.59 in South 1.8 mph 8 mph 75% 0.00 in 30 W/m2
17:09 72.9 °F 64.6 °F 29.59 in South 1.9 mph 10 mph 75% 0.00 in 35 W/m2
17:14 72.8 °F 64.4 °F 29.59 in South 1.5 mph 10 mph 75% 0.00 in 35 W/m2
17:19 72.6 °F 64.3 °F 29.59 in South 0.9 mph 10 mph 75% 0.00 in 32 W/m2
17:24 72.5 °F 64.1 °F 29.59 in South 1 mph 10 mph 75% 0.00 in 19 W/m2
17:29 72.4 °F 63.7 °F 29.58 in SSE 1.2 mph 10 mph 74.3% 0.00 in 19 W/m2
17:34 72.2 °F 63.5 °F 29.59 in SSE 0.2 mph 10 mph 74% 0.00 in 18 W/m2
17:39 72.1 °F 63.2 °F 29.59 in South 2.2 mph 8 mph 73.5% 0.00 in 11 W/m2
17:44 72 °F 63.1 °F 29.59 in South 1.5 mph 10 mph 73.6% 0.00 in 7 W/m2
17:49 71.9 °F 63.1 °F 29.59 in South 2.2 mph 11 mph 74% 0.00 in 0 W/m2
17:54 71.7 °F 63.1 °F 29.59 in South 0.5 mph 11 mph 74.2% 0.00 in 0 W/m2
17:59 71.6 °F 63.3 °F 29.59 in SSE 0.4 mph 11 mph 75% 0.00 in 0 W/m2
18:04 71.5 °F 63.2 °F 29.59 in South 0.6 mph 11 mph 75.2% 0.00 in 0 W/m2
18:09 71.3 °F 63.4 °F 29.58 in South 2.2 mph 9 mph 76.1% 0.00 in 0 W/m2
18:14 71.2 °F 63.8 °F 29.58 in South 2.4 mph 12 mph 77.3% 0.00 in 0 W/m2
18:19 71.1 °F 63.9 °F 29.57 in South 1.2 mph 12 mph 78.1% 0.00 in 0 W/m2
18:24 71 °F 64.2 °F 29.58 in South 0.7 mph 12 mph 79% 0.00 in 0 W/m2
18:29 70.9 °F 64.4 °F 29.58 in South 0.8 mph 12 mph 80% 0.00 in 0 W/m2
18:34 70.9 °F 64.7 °F 29.58 in South 1.1 mph 12 mph 80.9% 0.00 in 0 W/m2
18:39 70.9 °F 64.8 °F 29.58 in South 1.8 mph 9 mph 81% 0.00 in 0 W/m2
18:44 71 °F 65.2 °F 29.58 in South 1.2 mph 9 mph 82% 0.00 in 0 W/m2
18:49 71 °F 65.2 °F 29.58 in South 2.1 mph 10 mph 82% 0.00 in 0 W/m2
18:54 70.9 °F 65.2 °F 29.59 in South 0.3 mph 10 mph 82.1% 0.00 in 0 W/m2
18:59 70.9 °F 65.5 °F 29.59 in South 0.4 mph 10 mph 83% 0.00 in 0 W/m2
19:04 70.8 °F 65.4 °F 29.59 in South 0.6 mph 10 mph 83% 0.00 in 0 W/m2
19:09 70.8 °F 65.4 °F 29.59 in SSE 1.5 mph 7 mph 83.2% 0.00 in 0 W/m2
19:14 70.8 °F 65.4 °F 29.60 in SSE 1.5 mph 7 mph 83% 0.00 in 0 W/m2
19:19 70.9 °F 65.8 °F 29.60 in South 0.4 mph 7 mph 83.8% 0.00 in 0 W/m2
19:24 71 °F 65.9 °F 29.60 in South 0.1 mph 7 mph 84% 0.00 in 0 W/m2
19:29 71 °F 65.9 °F 29.59 in South 0.2 mph 7 mph 83.9% 0.00 in 0 W/m2
19:34 71 °F 65.9 °F 29.61 in SW 1.3 mph 7 mph 84.1% 0.01 in 0 W/m2
19:39 70.7 °F 65.1 °F 29.61 in WSW 0.9 mph 12 mph 82.6% 0.01 in 0 W/m2
19:44 70 °F 64.1 °F 29.61 in WSW 0.5 mph 12 mph 81.5% 0.01 in 0 W/m2
19:49 69.4 °F 63.7 °F 29.60 in WSW 0.8 mph 12 mph 82.2% 0.01 in 0 W/m2
19:54 68.7 °F 63.4 °F 29.61 in West 1.7 mph 12 mph 83.2% 0.01 in 0 W/m2
19:59 68.2 °F 63.3 °F 29.61 in West 0.8 mph 12 mph 84.3% 0.01 in 0 W/m2
20:00 68 °F 63.3 °F 29.61 in Calm   12 mph 85% 0.01 in 0 W/m2
20:09 67.5 °F 63 °F 29.61 in WNW 4.3 mph 13 mph 85.6% 0.01 in 0 W/m2
20:14 67.1 °F 62.6 °F 29.61 in WNW 2.4 mph 13 mph 85.5% 0.01 in 0 W/m2
20:19 66.8 °F 62.5 °F 29.61 in WNW 0.8 mph 13 mph 86% 0.01 in 0 W/m2
20:24 66.7 °F 62.4 °F 29.62 in West 0.7 mph 13 mph 86.2% 0.01 in 0 W/m2
20:29 66.4 °F 62.1 °F 29.62 in West 1.5 mph 13 mph 86% 0.01 in 0 W/m2
20:34 66.2 °F 61.9 °F 29.62 in West 2.1 mph 13 mph 86% 0.01 in 0 W/m2
20:39 66 °F 61.7 °F 29.62 in WNW 1.4 mph 10 mph 86% 0.01 in 0 W/m2
20:44 65.9 °F 61.6 °F 29.62 in West 0.3 mph 10 mph 86% 0.01 in 0 W/m2
20:49 65.8 °F 61.8 °F 29.62 in WNW 0.6 mph 10 mph 86.9% 0.01 in 0 W/m2
20:54 65.8 °F 61.9 °F 29.63 in Calm   10 mph 87.4% 0.02 in 0 W/m2
20:59 65.8 °F 62.1 °F 29.63 in NW 0.2 mph 10 mph 88% 0.02 in 0 W/m2
21:04 65.7 °F 62 °F 29.63 in Calm   10 mph 88% 0.02 in 0 W/m2
21:09 65.5 °F 62.1 °F 29.63 in NNW 0.2 mph 6 mph 88.8% 0.01 in 0 W/m2
21:14 65.3 °F 62 °F 29.63 in Calm   6 mph 89% 0.02 in 0 W/m2
21:19 65.2 °F 62 °F 29.64 in Calm   6 mph 89.4% 0.03 in 0 W/m2
21:24 65.2 °F 62.2 °F 29.64 in WNW 0.2 mph 7 mph 90% 0.04 in 0 W/m2
21:29 65 °F 62 °F 29.65 in NW 3.2 mph 11 mph 90% 0.05 in 0 W/m2
21:34 64.3 °F 60.8 °F 29.65 in NNW 4.6 mph 15 mph 88.2% 0.07 in 0 W/m2
21:39 63.3 °F 59 °F 29.65 in NW 3.5 mph 15 mph 85.9% 0.07 in 0 W/m2
21:44 62.6 °F 58.4 °F 29.67 in WNW 2.2 mph 15 mph 86% 0.07 in 0 W/m2
21:49 62.2 °F 58.1 °F 29.67 in NW 0.9 mph 15 mph 86.6% 0.07 in 0 W/m2
21:54 61.8 °F 57.9 °F 29.67 in NW 0.6 mph 15 mph 87% 0.08 in 0 W/m2
21:59 61.6 °F 58.1 °F 29.67 in Calm   15 mph 88.2% 0.08 in 0 W/m2
22:04 61.4 °F 57.8 °F 29.66 in NNW 2.9 mph 15 mph 88.2% 0.08 in 0 W/m2
22:09 61 °F 57.4 °F 29.67 in NW 1 mph 14 mph 88% 0.07 in 0 W/m2
22:14 60.8 °F 57.4 °F 29.68 in NW 0.3 mph 14 mph 88.5% 0.07 in 0 W/m2
22:19 60.7 °F 57.5 °F 29.68 in NW 0.5 mph 14 mph 89% 0.07 in 0 W/m2
22:24 60.7 °F 57.5 °F 29.67 in NW 0.6 mph 14 mph 89.4% 0.07 in 0 W/m2
22:29 60.5 °F 57.6 °F 29.69 in West 1.2 mph 14 mph 90% 0.08 in 0 W/m2
22:34 60.4 °F 57.6 °F 29.69 in West 1.5 mph 14 mph 90.4% 0.08 in 0 W/m2
22:39 60.2 °F 57.3 °F 29.70 in WNW 1 mph 7 mph 90% 0.08 in 0 W/m2
22:44 59.9 °F 57 °F 29.69 in NNW 0.3 mph 7 mph 90% 0.11 in 0 W/m2
22:49 59.7 °F 56.7 °F 29.69 in WNW 0.9 mph 9 mph 90% 0.13 in 0 W/m2
22:54 59.4 °F 56.8 °F 29.69 in NNW 1.7 mph 9 mph 91% 0.15 in 0 W/m2
22:59 59.2 °F 56.6 °F 29.69 in NNW 0.1 mph 9 mph 91% 0.17 in 0 W/m2
23:04 59 °F 56.4 °F 29.68 in NNW 0.1 mph 9 mph 91% 0.17 in 0 W/m2
23:09 58.9 °F 56.5 °F 29.69 in NNW 0.4 mph 4 mph 91.7% 0.16 in 0 W/m2
23:14 58.8 °F 56.5 °F 29.68 in Calm   4 mph 92% 0.17 in 0 W/m2
23:19 58.7 °F 56.4 °F 29.68 in Calm   4 mph 92% 0.18 in 0 W/m2
23:24 58.6 °F 56.3 °F 29.69 in Calm   4 mph 92% 0.18 in 0 W/m2
23:29 58.5 °F 56.2 °F 29.69 in Calm   4 mph 92% 0.19 in 0 W/m2
23:34 58.4 °F 56.3 °F 29.68 in Calm   4 mph 92.9% 0.19 in 0 W/m2
23:39 58.3 °F 56.3 °F 29.68 in Calm     93% 0.19 in 0 W/m2
23:43 58.2 °F 56.2 °F 29.67 in Calm     93% 0.19 in 0 W/m2
Hartford County Weather
Compliments of Weather Underground - 2 mb